createdAt,value
2016-06-09T00:00:07.468Z,84.5
2016-06-09T00:00:17.470Z,84.7
2016-06-09T00:00:27.517Z,84.5
2016-06-09T00:00:37.438Z,84.4
2016-06-09T00:00:47.423Z,84.7
2016-06-09T00:00:57.470Z,84.9
2016-06-09T00:01:07.485Z,84.7
2016-06-09T00:01:17.442Z,84.8
2016-06-09T00:01:27.427Z,84.6
2016-06-09T00:01:37.427Z,84.6
2016-06-09T00:01:47.442Z,85
2016-06-09T00:01:57.427Z,85.2
2016-06-09T00:02:07.411Z,85.4
2016-06-09T00:02:17.414Z,85.2
2016-06-09T00:02:27.414Z,85.5
2016-06-09T00:02:37.399Z,85.2
2016-06-09T00:02:47.477Z,85.2
2016-06-09T00:02:57.742Z,85.3
2016-06-09T00:03:08.695Z,85.1
2016-06-09T00:03:17.714Z,85.3
2016-06-09T00:03:28.620Z,84.6
2016-06-09T00:03:37.448Z,84.8
2016-06-09T00:03:47.308Z,84.5
2016-06-09T00:03:57.355Z,84.2
2016-06-09T00:04:07.417Z,83.9
2016-06-09T00:04:17.420Z,83.9
2016-06-09T00:04:27.451Z,83.3
2016-06-09T00:04:37.405Z,83
2016-06-09T00:04:47.389Z,83.6
2016-06-09T00:04:57.389Z,83.4
2016-06-09T00:05:07.436Z,83.4
2016-06-09T00:05:17.361Z,83.3
2016-06-09T00:05:27.392Z,83.3
2016-06-09T00:05:37.361Z,83.4
2016-06-09T00:05:47.439Z,83.5
2016-06-09T00:05:57.376Z,83.3
2016-06-09T00:06:07.361Z,83.1
2016-06-09T00:06:17.348Z,83
2016-06-09T00:06:27.192Z,83
2016-06-09T00:06:37.332Z,83
2016-06-09T00:06:47.332Z,82.7
2016-06-09T00:06:57.176Z,82.8
2016-06-09T00:07:10.082Z,82.8
2016-06-09T00:07:17.820Z,83
2016-06-09T00:07:27.851Z,83
2016-06-09T00:07:37.773Z,83.2
2016-06-09T00:07:47.773Z,82.6
2016-06-09T00:07:57.773Z,82.7
2016-06-09T00:08:07.789Z,82.6
2016-06-09T00:08:17.761Z,82.2
2016-06-09T00:08:27.761Z,82.6
2016-06-09T00:08:37.839Z,82.8
2016-06-09T00:08:47.808Z,82.5
2016-06-09T00:08:57.761Z,82.4
2016-06-09T00:09:07.761Z,82.2
2016-06-09T00:09:17.763Z,82
2016-06-09T00:09:27.779Z,82
2016-06-09T00:09:37.732Z,81.8
2016-06-09T00:09:47.732Z,82.5
2016-06-09T00:09:57.795Z,82.2
2016-06-09T00:10:07.763Z,82.3
2016-06-09T00:10:17.799Z,82.1
2016-06-09T00:10:27.720Z,82.6
2016-06-09T00:10:37.736Z,82.5
2016-06-09T00:10:47.845Z,82.3
2016-06-09T00:10:57.720Z,81.7
2016-06-09T00:11:07.705Z,81.9
2016-06-09T00:11:17.754Z,82.1
2016-06-09T00:11:27.754Z,82.1
2016-06-09T00:11:37.707Z,82
2016-06-09T00:11:47.707Z,82.1
2016-06-09T00:11:57.738Z,82.1
2016-06-09T00:12:07.941Z,81.9
2016-06-09T00:12:17.694Z,81.7
2016-06-09T00:12:27.694Z,81.8
2016-06-09T00:12:37.694Z,81.7
2016-06-09T00:12:47.538Z,81.6
2016-06-09T00:12:57.554Z,81.8
2016-06-09T00:13:07.757Z,81.6
2016-06-09T00:13:17.619Z,81.8
2016-06-09T00:13:27.697Z,81.8
2016-06-09T00:13:37.666Z,81.7
2016-06-09T00:13:47.682Z,81.8
2016-06-09T00:13:57.728Z,81.9
2016-06-09T00:14:07.760Z,81.8
2016-06-09T00:14:17.669Z,81.8
2016-06-09T00:14:27.669Z,82
2016-06-09T00:14:37.731Z,82
2016-06-09T00:14:47.778Z,82
2016-06-09T00:14:57.685Z,81.8
2016-06-09T00:15:07.653Z,82.4
2016-06-09T00:15:17.672Z,82.2
2016-06-09T00:15:27.672Z,82.2
2016-06-09T00:15:37.641Z,82.4
2016-06-09T00:15:47.641Z,82.5
2016-06-09T00:15:57.703Z,82.5
2016-06-09T00:16:07.484Z,82.1
2016-06-09T00:16:17.644Z,81.9
2016-06-09T00:16:27.644Z,81.7
2016-06-09T00:16:37.722Z,81.7
2016-06-09T00:16:47.706Z,82.2
2016-06-09T00:16:57.628Z,81.7
2016-06-09T00:17:07.628Z,81.8
2016-06-09T00:17:17.710Z,81.5
2016-06-09T00:17:27.679Z,81.9
2016-06-09T00:17:37.648Z,81.8
2016-06-09T00:17:47.601Z,82.1
2016-06-09T00:17:57.663Z,82
2016-06-09T00:18:08.429Z,82
2016-06-09T00:18:18.478Z,81.7
2016-06-09T00:18:27.759Z,81.8
2016-06-09T00:18:38.322Z,81.9
2016-06-09T00:18:48.509Z,81.8
2016-06-09T00:18:57.915Z,81.8
2016-06-09T00:19:08.165Z,82
2016-06-09T00:19:17.591Z,81.6
2016-06-09T00:19:27.591Z,82.4
2016-06-09T00:19:37.622Z,82.4
2016-06-09T00:19:47.576Z,82.4
2016-06-09T00:19:57.622Z,82.6
2016-06-09T00:20:07.622Z,82.6
2016-06-09T00:20:17.579Z,82.5
2016-06-09T00:20:27.579Z,82.4
2016-06-09T00:20:37.625Z,82.9
2016-06-09T00:20:47.422Z,82.5
2016-06-09T00:20:57.563Z,82.5
2016-06-09T00:21:07.563Z,82.9
2016-06-09T00:21:17.566Z,82.7
2016-06-09T00:21:27.613Z,82.8
2016-06-09T00:21:37.535Z,83.1
2016-06-09T00:21:47.535Z,83
2016-06-09T00:21:57.550Z,83.1
2016-06-09T00:22:07.582Z,83.3
2016-06-09T00:22:17.553Z,83.3
2016-06-09T00:22:27.538Z,83.3
2016-06-09T00:22:37.538Z,83.6
2016-06-09T00:22:47.538Z,83.7
2016-06-09T00:22:57.522Z,83.7
2016-06-09T00:23:07.506Z,83.6
2016-06-09T00:23:17.526Z,83.5
2016-06-09T00:23:27.604Z,83.3
2016-06-09T00:23:37.510Z,83.4
2016-06-09T00:23:47.510Z,83
2016-06-09T00:23:57.510Z,83.4
2016-06-09T00:24:07.573Z,83.5
2016-06-09T00:24:17.497Z,83.5
2016-06-09T00:24:27.528Z,83.4
2016-06-09T00:24:37.356Z,82.7
2016-06-09T00:24:47.559Z,82.9
2016-06-09T00:24:57.497Z,82.6
2016-06-09T00:25:07.497Z,82.7
2016-06-09T00:25:17.515Z,82.6
2016-06-09T00:25:27.500Z,82.8
2016-06-09T00:25:37.484Z,82.8
2016-06-09T00:25:47.500Z,83
2016-06-09T00:25:57.484Z,82.9
2016-06-09T00:26:07.500Z,82.7
2016-06-09T00:26:17.488Z,82.7
2016-06-09T00:26:27.488Z,82.8
2016-06-09T00:26:37.473Z,83.2
2016-06-09T00:26:47.488Z,82.9
2016-06-09T00:26:57.473Z,83
2016-06-09T00:27:07.457Z,83
2016-06-09T00:27:17.476Z,82.8
2016-06-09T00:27:27.476Z,82.8
2016-06-09T00:27:37.304Z,83
2016-06-09T00:27:47.476Z,82.9
2016-06-09T00:27:57.444Z,83
2016-06-09T00:28:07.460Z,82.9
2016-06-09T00:28:17.447Z,82.3
2016-06-09T00:28:27.432Z,82.8
2016-06-09T00:28:37.447Z,82.5
2016-06-09T00:28:47.447Z,82.4
2016-06-09T00:28:57.447Z,82.7
2016-06-09T00:29:07.432Z,82.2
2016-06-09T00:29:17.449Z,81.6
2016-06-09T00:29:27.293Z,81.8
2016-06-09T00:29:37.434Z,81.9
2016-06-09T00:29:47.262Z,82
2016-06-09T00:29:57.402Z,81.6
2016-06-09T00:30:07.449Z,81.8
2016-06-09T00:30:17.422Z,81.7
2016-06-09T00:30:27.453Z,81.8
2016-06-09T00:30:37.406Z,82
2016-06-09T00:30:47.500Z,81.9
2016-06-09T00:30:57.406Z,82
2016-06-09T00:31:07.422Z,81.6
2016-06-09T00:31:17.425Z,82.2
2016-06-09T00:31:27.394Z,82.2
2016-06-09T00:31:37.394Z,82.5
2016-06-09T00:31:47.394Z,82.5
2016-06-09T00:31:57.394Z,82.3
2016-06-09T00:32:07.409Z,81.7
2016-06-09T00:32:17.381Z,82
2016-06-09T00:32:27.397Z,81.8
2016-06-09T00:32:37.366Z,81.9
2016-06-09T00:32:47.381Z,82.1
2016-06-09T00:32:58.412Z,82.5
2016-06-09T00:33:07.381Z,82.4
2016-06-09T00:33:17.431Z,82.3
2016-06-09T00:33:28.056Z,82.3
2016-06-09T00:33:38.119Z,82.2
2016-06-09T00:33:47.587Z,82.1
2016-06-09T00:33:57.478Z,81.9
2016-06-09T00:34:08.087Z,81.8
2016-06-09T00:34:17.418Z,82
2016-06-09T00:34:27.356Z,82.1
2016-06-09T00:34:37.340Z,82.1
2016-06-09T00:34:47.372Z,81.9
2016-06-09T00:34:57.340Z,81.8
2016-06-09T00:35:07.200Z,81.9
2016-06-09T00:35:17.344Z,81.8
2016-06-09T00:35:27.188Z,81.8
2016-06-09T00:35:37.344Z,82
2016-06-09T00:35:47.376Z,82.1
2016-06-09T00:35:57.329Z,81.9
2016-06-09T00:36:07.313Z,82.1
2016-06-09T00:36:17.315Z,81.9
2016-06-09T00:36:27.331Z,82
2016-06-09T00:36:37.190Z,81.8
2016-06-09T00:36:47.346Z,81.6
2016-06-09T00:36:57.315Z,81.9
2016-06-09T00:37:07.315Z,82.1
2016-06-09T00:37:17.302Z,81.9
2016-06-09T00:37:27.396Z,81.7
2016-06-09T00:37:37.287Z,81.8
2016-06-09T00:37:47.381Z,82
2016-06-09T00:37:57.318Z,81.8
2016-06-09T00:38:07.318Z,81.7
2016-06-09T00:38:17.291Z,81.8
2016-06-09T00:38:27.322Z,81.8
2016-06-09T00:38:37.291Z,81.7
2016-06-09T00:38:47.369Z,81.7
2016-06-09T00:38:57.275Z,82
2016-06-09T00:39:07.119Z,81.9
2016-06-09T00:39:17.260Z,81.8
2016-06-09T00:39:27.355Z,81.7
2016-06-09T00:39:37.262Z,82
2016-06-09T00:39:47.340Z,81.7
2016-06-09T00:39:57.262Z,82.6
2016-06-09T00:40:07.308Z,82.4
2016-06-09T00:40:17.246Z,82.5
2016-06-09T00:40:27.249Z,82.4
2016-06-09T00:40:37.249Z,82.5
2016-06-09T00:40:47.296Z,82.4
2016-06-09T00:40:57.233Z,82.3
2016-06-09T00:41:07.280Z,82.5
2016-06-09T00:41:17.233Z,82.5
2016-06-09T00:41:27.237Z,82.9
2016-06-09T00:41:37.253Z,82.4
2016-06-09T00:41:47.222Z,82.5
2016-06-09T00:41:57.222Z,82.5
2016-06-09T00:42:07.269Z,82.9
2016-06-09T00:42:17.222Z,83.2
2016-06-09T00:42:27.240Z,82.7
2016-06-09T00:42:37.209Z,82.7
2016-06-09T00:42:47.209Z,82.6
2016-06-09T00:42:57.209Z,82.9
2016-06-09T00:43:07.209Z,83
2016-06-09T00:43:17.209Z,83
2016-06-09T00:43:27.195Z,83.2
2016-06-09T00:43:37.211Z,83.2
2016-06-09T00:43:47.242Z,83.2
2016-06-09T00:43:57.195Z,83.2
2016-06-09T00:44:07.024Z,82.4
2016-06-09T00:44:17.180Z,82.5
2016-06-09T00:44:27.043Z,82.4
2016-06-09T00:44:37.199Z,82.4
2016-06-09T00:44:47.184Z,82.4
2016-06-09T00:44:57.168Z,82.4
2016-06-09T00:45:07.215Z,83.2
2016-06-09T00:45:17.168Z,83.1
2016-06-09T00:45:27.170Z,83.2
2016-06-09T00:45:37.186Z,83.2
2016-06-09T00:45:47.170Z,83.2
2016-06-09T00:45:57.155Z,82.9
2016-06-09T00:46:06.998Z,82.5
2016-06-09T00:46:17.139Z,82.4
2016-06-09T00:46:27.174Z,82.5
2016-06-09T00:46:37.143Z,82.2
2016-06-09T00:46:47.190Z,82.2
2016-06-09T00:46:57.174Z,82.1
2016-06-09T00:47:06.987Z,82.2
2016-06-09T00:47:17.143Z,82.1
2016-06-09T00:47:27.162Z,82.4
2016-06-09T00:47:37.115Z,82.7
2016-06-09T00:47:47.146Z,82.8
2016-06-09T00:47:57.115Z,82.8
2016-06-09T00:48:07.568Z,82.3
2016-06-09T00:48:17.680Z,82.3
2016-06-09T00:48:27.790Z,82.3
2016-06-09T00:48:37.477Z,82.5
2016-06-09T00:48:47.133Z,82.1
2016-06-09T00:48:58.008Z,82.4
2016-06-09T00:49:07.540Z,82.4
2016-06-09T00:49:17.165Z,82.3
2016-06-09T00:49:27.464Z,81.8
2016-06-09T00:49:37.136Z,81.7
2016-06-09T00:49:47.152Z,82.1
2016-06-09T00:49:57.105Z,82.4
2016-06-09T00:50:07.089Z,82.3
2016-06-09T00:50:16.964Z,82.6
2016-06-09T00:50:27.124Z,82.4
2016-06-09T00:50:37.092Z,82.6
2016-06-09T00:50:47.092Z,82.2
2016-06-09T00:50:57.077Z,82.1
2016-06-09T00:51:06.936Z,82
2016-06-09T00:51:17.092Z,81.9
2016-06-09T00:51:27.128Z,81.8
2016-06-09T00:51:37.065Z,82
2016-06-09T00:51:47.128Z,82.5
2016-06-09T00:51:57.065Z,82.4
2016-06-09T00:52:07.112Z,83
2016-06-09T00:52:16.893Z,82.6
2016-06-09T00:52:27.098Z,83
2016-06-09T00:52:37.067Z,83.4
2016-06-09T00:52:47.083Z,83.2
2016-06-09T00:52:57.052Z,83.5
2016-06-09T00:53:07.052Z,83.6
2016-06-09T00:53:17.067Z,83.9
2016-06-09T00:53:27.056Z,83.3
2016-06-09T00:53:37.040Z,83.8
2016-06-09T00:53:47.165Z,84.1
2016-06-09T00:53:57.056Z,83.8
2016-06-09T00:54:07.056Z,83.4
2016-06-09T00:54:17.056Z,83.4
2016-06-09T00:54:27.090Z,83.4
2016-06-09T00:54:37.027Z,83.5
2016-06-09T00:54:47.043Z,83.4
2016-06-09T00:54:57.012Z,83.7
2016-06-09T00:55:07.012Z,83.8
2016-06-09T00:55:17.012Z,84.1
2016-06-09T00:55:27.014Z,83.6
2016-06-09T00:55:37.029Z,83.6
2016-06-09T00:55:46.998Z,83.1
2016-06-09T00:55:57.045Z,82.8
2016-06-09T00:56:07.014Z,82.9
2016-06-09T00:56:16.998Z,82.8
2016-06-09T00:56:27.032Z,83
2016-06-09T00:56:36.985Z,82.9
2016-06-09T00:56:46.985Z,83
2016-06-09T00:56:56.970Z,83.2
2016-06-09T00:57:06.985Z,82.8
2016-06-09T00:57:16.970Z,83
2016-06-09T00:57:26.974Z,82.5
2016-06-09T00:57:36.974Z,82.9
2016-06-09T00:57:47.005Z,82.8
2016-06-09T00:57:56.958Z,82.8
2016-06-09T00:58:06.974Z,82.1
2016-06-09T00:58:16.974Z,82.3
2016-06-09T00:58:27.008Z,82.1
2016-06-09T00:58:36.961Z,82.3
2016-06-09T00:58:46.961Z,82.4
2016-06-09T00:58:56.946Z,82.7
2016-06-09T00:59:07.008Z,82.1
2016-06-09T00:59:16.946Z,82.2
2016-06-09T00:59:26.933Z,82.3
2016-06-09T00:59:36.949Z,82.3
2016-06-09T00:59:46.964Z,82.3
2016-06-09T00:59:56.917Z,82.3
2016-06-09T01:00:06.949Z,82
2016-06-09T01:00:16.949Z,81.8
2016-06-09T01:00:26.780Z,81.8
2016-06-09T01:00:36.920Z,82.3
2016-06-09T01:00:46.952Z,82.3
2016-06-09T01:00:56.936Z,82.6
2016-06-09T01:01:06.920Z,83.1
2016-06-09T01:01:16.795Z,82.8
2016-06-09T01:01:26.939Z,83
2016-06-09T01:01:36.751Z,82.9
2016-06-09T01:01:46.955Z,82.9
2016-06-09T01:01:56.908Z,83.1
2016-06-09T01:02:06.908Z,82.5
2016-06-09T01:02:16.923Z,82.8
2016-06-09T01:02:26.973Z,82.5
2016-06-09T01:02:36.895Z,83.1
2016-06-09T01:02:46.895Z,83
2016-06-09T01:02:56.879Z,82.9
2016-06-09T01:03:07.004Z,82.6
2016-06-09T01:03:16.926Z,82.9
2016-06-09T01:03:27.882Z,82.9
2016-06-09T01:03:37.507Z,82.9
2016-06-09T01:03:47.601Z,83.1
2016-06-09T01:03:57.320Z,82.3
2016-06-09T01:04:06.929Z,82.2
2016-06-09T01:04:16.867Z,82.2
2016-06-09T01:04:27.151Z,82.7
2016-06-09T01:04:36.870Z,81.7
2016-06-09T01:04:46.948Z,82
2016-06-09T01:04:56.901Z,82
2016-06-09T01:05:06.917Z,82
2016-06-09T01:05:16.854Z,81.9
2016-06-09T01:05:26.921Z,82.3
2016-06-09T01:05:36.858Z,82.2
2016-06-09T01:05:46.874Z,82.7
2016-06-09T01:05:56.874Z,82.3
2016-06-09T01:06:06.936Z,82.3
2016-06-09T01:06:16.827Z,82.1
2016-06-09T01:06:26.845Z,82.4
2016-06-09T01:06:36.829Z,82.3
2016-06-09T01:06:46.891Z,82.2
2016-06-09T01:06:56.813Z,82.4
2016-06-09T01:07:06.813Z,82.6
2016-06-09T01:07:16.813Z,82.8
2016-06-09T01:07:26.816Z,83.1
2016-06-09T01:07:36.801Z,83
2016-06-09T01:07:46.832Z,82.6
2016-06-09T01:07:56.816Z,82.8
2016-06-09T01:08:06.848Z,82.9
2016-06-09T01:08:16.801Z,83.4
2016-06-09T01:08:26.804Z,83.4
2016-06-09T01:08:36.819Z,84
2016-06-09T01:08:46.804Z,83.9
2016-06-09T01:08:56.788Z,83.8
2016-06-09T01:09:06.804Z,84
2016-06-09T01:09:16.788Z,83.8
2016-06-09T01:09:26.808Z,83.5
2016-06-09T01:09:36.808Z,83.9
2016-06-09T01:09:46.792Z,83.8
2016-06-09T01:09:56.776Z,83.5
2016-06-09T01:10:06.776Z,84.1
2016-06-09T01:10:16.761Z,84.3
2016-06-09T01:10:26.764Z,84.3
2016-06-09T01:10:36.764Z,83.9
2016-06-09T01:10:46.811Z,84.3
2016-06-09T01:10:56.748Z,84.2
2016-06-09T01:11:06.779Z,84.1
2016-06-09T01:11:16.748Z,83.8
2016-06-09T01:11:26.767Z,83.7
2016-06-09T01:11:36.736Z,83.9
2016-06-09T01:11:46.751Z,83.8
2016-06-09T01:11:56.751Z,83.5
2016-06-09T01:12:06.829Z,83.8
2016-06-09T01:12:16.736Z,83.7
2016-06-09T01:12:26.801Z,83.5
2016-06-09T01:12:36.723Z,83.6
2016-06-09T01:12:46.754Z,83.5
2016-06-09T01:12:56.660Z,83.3
2016-06-09T01:13:06.770Z,83.4
2016-06-09T01:13:16.723Z,83.1
2016-06-09T01:13:26.773Z,83.5
2016-06-09T01:13:36.742Z,83.2
2016-06-09T01:13:46.742Z,82.9
2016-06-09T01:13:56.804Z,83.1
2016-06-09T01:14:06.788Z,83
2016-06-09T01:14:16.695Z,83
2016-06-09T01:14:26.713Z,83
2016-06-09T01:14:36.698Z,83
2016-06-09T01:14:46.698Z,83
2016-06-09T01:14:56.729Z,83.3
2016-06-09T01:15:06.682Z,83.1
2016-06-09T01:15:16.682Z,82.9
2016-06-09T01:15:26.701Z,83
2016-06-09T01:15:36.669Z,82.5
2016-06-09T01:15:46.701Z,82.4
2016-06-09T01:15:56.685Z,81.6
2016-06-09T01:16:06.716Z,82
2016-06-09T01:16:16.685Z,82
2016-06-09T01:16:26.672Z,82.1
2016-06-09T01:16:36.672Z,81.7
2016-06-09T01:16:46.719Z,82
2016-06-09T01:16:56.657Z,82
2016-06-09T01:17:06.672Z,81.5
2016-06-09T01:17:16.641Z,82.2
2016-06-09T01:17:26.707Z,81.8
2016-06-09T01:17:36.660Z,82
2016-06-09T01:17:46.722Z,82.6
2016-06-09T01:17:56.644Z,82.6
2016-06-09T01:18:06.879Z,82.3
2016-06-09T01:18:17.066Z,81.8
2016-06-09T01:18:27.039Z,82.1
2016-06-09T01:18:37.211Z,81.8
2016-06-09T01:18:47.226Z,81.7
2016-06-09T01:18:56.633Z,82
2016-06-09T01:19:06.742Z,82
2016-06-09T01:19:17.476Z,81.5
2016-06-09T01:19:27.072Z,81.3
2016-06-09T01:19:36.619Z,81.7
2016-06-09T01:19:46.681Z,81.6
2016-06-09T01:19:56.603Z,81.7
2016-06-09T01:20:06.619Z,81.4
2016-06-09T01:20:16.619Z,81.5
2016-06-09T01:20:26.700Z,81.3
2016-06-09T01:20:36.591Z,81.4
2016-06-09T01:20:46.653Z,81.3
2016-06-09T01:20:56.606Z,82.1
2016-06-09T01:21:06.606Z,81.9
2016-06-09T01:21:16.591Z,82
2016-06-09T01:21:26.610Z,82.2
2016-06-09T01:21:36.610Z,82.3
2016-06-09T01:21:46.579Z,82.8
2016-06-09T01:21:56.595Z,82.9
2016-06-09T01:22:06.579Z,82.8
2016-06-09T01:22:16.579Z,82.9
2016-06-09T01:22:26.613Z,82.8
2016-06-09T01:22:36.582Z,82.6
2016-06-09T01:22:46.582Z,82.7
2016-06-09T01:22:56.566Z,82.9
2016-06-09T01:23:06.582Z,83
2016-06-09T01:23:16.551Z,82.9
2016-06-09T01:23:26.584Z,83
2016-06-09T01:23:36.553Z,82.8
2016-06-09T01:23:46.553Z,82.6
2016-06-09T01:23:56.584Z,82.5
2016-06-09T01:24:06.600Z,83
2016-06-09T01:24:16.553Z,83.1
2016-06-09T01:24:26.557Z,82.4
2016-06-09T01:24:36.526Z,82.2
2016-06-09T01:24:46.604Z,82.4
2016-06-09T01:24:56.541Z,82.5
2016-06-09T01:25:06.526Z,82.8
2016-06-09T01:25:16.510Z,82.4
2016-06-09T01:25:26.529Z,82.5
2016-06-09T01:25:36.544Z,81.6
2016-06-09T01:25:46.513Z,82.1
2016-06-09T01:25:56.529Z,82.4
2016-06-09T01:26:06.497Z,82.7
2016-06-09T01:26:16.544Z,83.1
2016-06-09T01:26:26.516Z,82.7
2016-06-09T01:26:36.532Z,83.1
2016-06-09T01:26:46.547Z,82.4
2016-06-09T01:26:56.500Z,82.7
2016-06-09T01:27:06.516Z,82.3
2016-06-09T01:27:16.500Z,82.6
2016-06-09T01:27:26.487Z,82
2016-06-09T01:27:36.518Z,82
2016-06-09T01:27:46.487Z,81.7
2016-06-09T01:27:56.487Z,82
2016-06-09T01:28:06.534Z,81.2
2016-06-09T01:28:16.487Z,81.7
2016-06-09T01:28:26.491Z,81.6
2016-06-09T01:28:36.475Z,81.1
2016-06-09T01:28:46.491Z,81.3
2016-06-09T01:28:56.459Z,81.4
2016-06-09T01:29:06.506Z,81
2016-06-09T01:29:16.459Z,81.3
2016-06-09T01:29:26.463Z,81.3
2016-06-09T01:29:36.495Z,81.5
2016-06-09T01:29:46.479Z,81.5
2016-06-09T01:29:56.307Z,81.3
2016-06-09T01:30:06.448Z,81.7
2016-06-09T01:30:16.448Z,82
2016-06-09T01:30:26.325Z,81.5
2016-06-09T01:30:36.465Z,81.7
2016-06-09T01:30:46.465Z,81.6
2016-06-09T01:30:56.434Z,81.7
2016-06-09T01:31:06.497Z,82.1
2016-06-09T01:31:16.419Z,81.5
2016-06-09T01:31:26.515Z,81.3
2016-06-09T01:31:36.437Z,81.1
2016-06-09T01:31:46.422Z,81.2
2016-06-09T01:31:56.422Z,81.3
2016-06-09T01:32:06.468Z,81.2
2016-06-09T01:32:16.265Z,81.3
2016-06-09T01:32:26.425Z,81.1
2016-06-09T01:32:36.409Z,81.2
2016-06-09T01:32:46.456Z,81.2
2016-06-09T01:32:56.409Z,81.2
2016-06-09T01:33:06.425Z,81.7
2016-06-09T01:33:16.253Z,81.5
2016-06-09T01:33:26.319Z,81.9
2016-06-09T01:33:36.413Z,81.8
2016-06-09T01:33:46.444Z,81.7
2016-06-09T01:33:57.116Z,81.9
2016-06-09T01:34:07.116Z,81.9
2016-06-09T01:34:16.241Z,81.6
2016-06-09T01:34:26.743Z,81.3
2016-06-09T01:34:36.759Z,81.6
2016-06-09T01:34:46.431Z,81.2
2016-06-09T01:34:56.352Z,81.3
2016-06-09T01:35:06.384Z,80.9
2016-06-09T01:35:16.368Z,81
2016-06-09T01:35:26.434Z,81.3
2016-06-09T01:35:36.387Z,81.1
2016-06-09T01:35:46.465Z,81.5
2016-06-09T01:35:56.340Z,80.6
2016-06-09T01:36:06.402Z,80.8
2016-06-09T01:36:16.340Z,81.1
2016-06-09T01:36:26.391Z,80.7
2016-06-09T01:36:36.375Z,80.2
2016-06-09T01:36:46.422Z,80.5
2016-06-09T01:36:56.344Z,81.1
2016-06-09T01:37:06.375Z,80.8
2016-06-09T01:37:16.344Z,80.7
2016-06-09T01:37:26.330Z,80.9
2016-06-09T01:37:36.330Z,81.3
2016-06-09T01:37:46.252Z,81.4
2016-06-09T01:37:56.315Z,81.3
2016-06-09T01:38:06.236Z,81.1
2016-06-09T01:38:16.315Z,81.1
2016-06-09T01:38:26.365Z,81.7
2016-06-09T01:38:36.303Z,81.9
2016-06-09T01:38:46.303Z,81.6
2016-06-09T01:38:56.303Z,81.8
2016-06-09T01:39:06.303Z,81.6
2016-06-09T01:39:16.303Z,81.8
2016-06-09T01:39:26.353Z,81.5
2016-06-09T01:39:36.306Z,81.9
2016-06-09T01:39:46.306Z,81.4
2016-06-09T01:39:56.290Z,81.1
2016-06-09T01:40:06.322Z,81.3
2016-06-09T01:40:16.275Z,81.3
2016-06-09T01:40:26.278Z,80.9
2016-06-09T01:40:36.293Z,80.6
2016-06-09T01:40:46.309Z,80.8
2016-06-09T01:40:56.262Z,80.7
2016-06-09T01:41:06.262Z,80.3
2016-06-09T01:41:16.262Z,79.9
2016-06-09T01:41:26.328Z,80.4
2016-06-09T01:41:36.265Z,80.4
2016-06-09T01:41:46.296Z,80.4
2016-06-09T01:41:56.265Z,79.8
2016-06-09T01:42:06.312Z,80.1
2016-06-09T01:42:16.249Z,79.7
2016-06-09T01:42:26.315Z,80.4
2016-06-09T01:42:36.252Z,80.1
2016-06-09T01:42:46.299Z,79.9
2016-06-09T01:42:56.252Z,80.3
2016-06-09T01:43:06.252Z,79.9
2016-06-09T01:43:16.221Z,80.2
2016-06-09T01:43:26.255Z,80.4
2016-06-09T01:43:36.224Z,80.4
2016-06-09T01:43:46.146Z,80.3
2016-06-09T01:43:56.224Z,79.8
2016-06-09T01:44:06.209Z,80.2
2016-06-09T01:44:16.224Z,80.1
2016-06-09T01:44:26.274Z,80.2
2016-06-09T01:44:36.055Z,80.4
2016-06-09T01:44:46.258Z,80.3
2016-06-09T01:44:56.258Z,80.3
2016-06-09T01:45:06.258Z,80.4
2016-06-09T01:45:16.196Z,80.3
2016-06-09T01:45:26.231Z,80
2016-06-09T01:45:36.216Z,80
2016-06-09T01:45:46.247Z,80.1
2016-06-09T01:45:56.247Z,79.7
2016-06-09T01:46:06.247Z,79.8
2016-06-09T01:46:16.169Z,79.6
2016-06-09T01:46:26.249Z,79.6
2016-06-09T01:46:36.186Z,79.7
2016-06-09T01:46:46.186Z,80.1
2016-06-09T01:46:56.171Z,79.9
2016-06-09T01:47:06.202Z,80.4
2016-06-09T01:47:16.171Z,79.6
2016-06-09T01:47:26.175Z,80.4
2016-06-09T01:47:36.175Z,80.4
2016-06-09T01:47:46.018Z,80
2016-06-09T01:47:56.159Z,79.8
2016-06-09T01:48:06.175Z,79.5
2016-06-09T01:48:17.034Z,79.2
2016-06-09T01:48:26.584Z,79.1
2016-06-09T01:48:36.646Z,79.1
2016-06-09T01:48:46.287Z,79.3
2016-06-09T01:48:56.162Z,79.3
2016-06-09T01:49:05.865Z,79.1
2016-06-09T01:49:17.443Z,79.6
2016-06-09T01:49:26.509Z,79.6
2016-06-09T01:49:37.509Z,79.1
2016-06-09T01:49:46.149Z,79.3
2016-06-09T01:49:56.024Z,79.1
2016-06-09T01:50:06.165Z,79.4
2016-06-09T01:50:16.118Z,79.1
2016-06-09T01:50:26.168Z,79.1
2016-06-09T01:50:36.121Z,79.4
2016-06-09T01:50:46.121Z,79.9
2016-06-09T01:50:56.106Z,79.7
2016-06-09T01:51:06.168Z,80.3
2016-06-09T01:51:15.949Z,80.4
2016-06-09T01:51:26.140Z,79.7
2016-06-09T01:51:35.937Z,80.4
2016-06-09T01:51:46.140Z,79.9
2016-06-09T01:51:56.093Z,80.2
2016-06-09T01:52:06.077Z,80.5
2016-06-09T01:52:16.109Z,80.2
2016-06-09T01:52:26.096Z,80.2
2016-06-09T01:52:36.080Z,80.2
2016-06-09T01:52:46.080Z,80.1
2016-06-09T01:52:56.096Z,80.2
2016-06-09T01:53:06.065Z,79.9
2016-06-09T01:53:16.065Z,80.1
2016-06-09T01:53:26.083Z,80.4
2016-06-09T01:53:36.068Z,80.2
2016-06-09T01:53:46.068Z,80.2
2016-06-09T01:53:56.068Z,80
2016-06-09T01:54:06.068Z,80.2
2016-06-09T01:54:16.052Z,80.3
2016-06-09T01:54:26.085Z,80.2
2016-06-09T01:54:36.054Z,79.6
2016-06-09T01:54:46.038Z,79.7
2016-06-09T01:54:56.023Z,79.6
2016-06-09T01:55:06.054Z,79.6
2016-06-09T01:55:16.054Z,79.9
2016-06-09T01:55:26.042Z,80
2016-06-09T01:55:36.027Z,79.5
2016-06-09T01:55:46.042Z,79.4
2016-06-09T01:55:56.011Z,79.3
2016-06-09T01:56:06.042Z,79.1
2016-06-09T01:56:16.027Z,79.6
2016-06-09T01:56:26.077Z,79.1
2016-06-09T01:56:36.014Z,79.4
2016-06-09T01:56:46.014Z,79.1
2016-06-09T01:56:55.999Z,79.4
2016-06-09T01:57:06.014Z,79.5
2016-06-09T01:57:15.858Z,79.6
2016-06-09T01:57:26.002Z,79.6
2016-06-09T01:57:35.986Z,79.4
2016-06-09T01:57:46.033Z,79.5
2016-06-09T01:57:55.986Z,78.9
2016-06-09T01:58:06.002Z,78.9
2016-06-09T01:58:15.986Z,78.9
2016-06-09T01:58:25.989Z,79.2
2016-06-09T01:58:35.989Z,78.9
2016-06-09T01:58:45.817Z,79
2016-06-09T01:58:55.973Z,78.9
2016-06-09T01:59:06.020Z,79.2
2016-06-09T01:59:15.973Z,79.5
2016-06-09T01:59:26.024Z,79.3
2016-06-09T01:59:35.962Z,79.4
2016-06-09T01:59:45.852Z,79.7
2016-06-09T01:59:55.962Z,79.4
2016-06-09T02:00:05.946Z,79.6
2016-06-09T02:00:15.946Z,79.2
2016-06-09T02:00:25.964Z,79.3
2016-06-09T02:00:35.948Z,79.4
2016-06-09T02:00:45.932Z,79.3
2016-06-09T02:00:55.948Z,79.4
2016-06-09T02:01:05.854Z,79.5
2016-06-09T02:01:15.932Z,79.6
2016-06-09T02:01:25.935Z,79.5
2016-06-09T02:01:35.982Z,79.2
2016-06-09T02:01:45.935Z,78.9
2016-06-09T02:01:55.935Z,79.2
2016-06-09T02:02:05.920Z,79.3
2016-06-09T02:02:15.935Z,79.3
2016-06-09T02:02:25.986Z,79
2016-06-09T02:02:35.783Z,79.1
2016-06-09T02:02:45.924Z,79.3
2016-06-09T02:02:55.939Z,79.1
2016-06-09T02:03:05.939Z,79.1
2016-06-09T02:03:15.908Z,79.1
2016-06-09T02:03:25.771Z,78.9
2016-06-09T02:03:36.396Z,78.9
2016-06-09T02:03:46.474Z,79
2016-06-09T02:03:56.255Z,78.9
2016-06-09T02:04:06.317Z,79.3
2016-06-09T02:04:15.942Z,79.1
2016-06-09T02:04:26.539Z,78.9
2016-06-09T02:04:35.774Z,78.8
2016-06-09T02:04:45.899Z,78.7
2016-06-09T02:04:56.086Z,79
2016-06-09T02:05:05.867Z,79.5
2016-06-09T02:05:15.883Z,79.3
2016-06-09T02:05:25.870Z,79.1
2016-06-09T02:05:35.870Z,79
2016-06-09T02:05:45.902Z,79.5
2016-06-09T02:05:55.886Z,79.4
2016-06-09T02:06:05.902Z,79.2
2016-06-09T02:06:15.855Z,79.1
2016-06-09T02:06:25.873Z,79.1
2016-06-09T02:06:35.873Z,79.1
2016-06-09T02:06:45.873Z,79.7
2016-06-09T02:06:55.842Z,79.4
2016-06-09T02:07:05.889Z,79.6
2016-06-09T02:07:15.936Z,79.4
2016-06-09T02:07:25.845Z,79.6
2016-06-09T02:07:35.845Z,79.5
2016-06-09T02:07:45.829Z,79.3
2016-06-09T02:07:55.689Z,79.3
2016-06-09T02:08:05.829Z,79.4
2016-06-09T02:08:15.814Z,79
2016-06-09T02:08:25.817Z,79.5
2016-06-09T02:08:35.832Z,79.9
2016-06-09T02:08:45.817Z,79.9
2016-06-09T02:08:55.661Z,80
2016-06-09T02:09:05.864Z,79.9
2016-06-09T02:09:15.848Z,80.3
2016-06-09T02:09:25.804Z,80.1
2016-06-09T02:09:35.804Z,80.2
2016-06-09T02:09:45.804Z,80.1
2016-06-09T02:09:55.804Z,80.3
2016-06-09T02:10:05.789Z,79.9
2016-06-09T02:10:15.789Z,80
2016-06-09T02:10:25.792Z,79.8
2016-06-09T02:10:35.823Z,79.9
2016-06-09T02:10:45.792Z,79.7
2016-06-09T02:10:55.792Z,79.8
2016-06-09T02:11:05.667Z,79.8
2016-06-09T02:11:15.635Z,79.8
2016-06-09T02:11:25.779Z,79.7
2016-06-09T02:11:35.763Z,79.9
2016-06-09T02:11:45.841Z,79.7
2016-06-09T02:11:55.857Z,79.5
2016-06-09T02:12:05.763Z,79.6
2016-06-09T02:12:15.748Z,79.8
2016-06-09T02:12:25.766Z,79.7
2016-06-09T02:12:35.751Z,79.6
2016-06-09T02:12:45.766Z,79.3
2016-06-09T02:12:55.766Z,79.1
2016-06-09T02:13:05.751Z,79.6
2016-06-09T02:13:15.829Z,79.1
2016-06-09T02:13:25.755Z,79.6
2016-06-09T02:13:35.723Z,79.6
2016-06-09T02:13:45.770Z,79.6
2016-06-09T02:13:55.739Z,79.6
2016-06-09T02:14:05.583Z,79.3